sensor_id;sensor_type;location;lat;lon;timestamp;temperature;humidity
13464;DHT22;6804;48.774;9.174;2022-12-10T00:01:38;4.00;99.90
13464;DHT22;6804;48.774;9.174;2022-12-10T00:04:06;4.00;99.90
13464;DHT22;6804;48.774;9.174;2022-12-10T00:06:35;3.80;99.90
13464;DHT22;6804;48.774;9.174;2022-12-10T00:09:06;3.70;99.90
13464;DHT22;6804;48.774;9.174;2022-12-10T00:11:37;3.60;99.90
13464;DHT22;6804;48.774;9.174;2022-12-10T00:14:05;3.60;99.90
13464;DHT22;6804;48.774;9.174;2022-12-10T00:16:35;3.70;99.90
13464;DHT22;6804;48.774;9.174;2022-12-10T00:19:06;3.60;99.90
13464;DHT22;6804;48.774;9.174;2022-12-10T00:21:37;3.60;99.90
13464;DHT22;6804;48.774;9.174;2022-12-10T00:24:06;3.60;99.90
13464;DHT22;6804;48.774;9.174;2022-12-10T00:26:37;3.70;99.90
13464;DHT22;6804;48.774;9.174;2022-12-10T00:29:07;3.70;99.90
13464;DHT22;6804;48.774;9.174;2022-12-10T00:31:37;3.60;99.90
13464;DHT22;6804;48.774;9.174;2022-12-10T00:34:06;3.70;99.90
13464;DHT22;6804;48.774;9.174;2022-12-10T00:36:41;3.60;99.90
13464;DHT22;6804;48.774;9.174;2022-12-10T00:39:17;3.70;99.90
13464;DHT22;6804;48.774;9.174;2022-12-10T00:41:45;3.80;99.90
13464;DHT22;6804;48.774;9.174;2022-12-10T00:44:17;3.80;99.90
13464;DHT22;6804;48.774;9.174;2022-12-10T00:46:44;3.80;99.90
13464;DHT22;6804;48.774;9.174;2022-12-10T00:49:16;3.90;99.90
13464;DHT22;6804;48.774;9.174;2022-12-10T00:51:50;3.90;99.90
13464;DHT22;6804;48.774;9.174;2022-12-10T00:54:18;3.90;99.90
13464;DHT22;6804;48.774;9.174;2022-12-10T00:56:46;3.80;99.90
13464;DHT22;6804;48.774;9.174;2022-12-10T00:59:17;3.70;99.90
13464;DHT22;6804;48.774;9.174;2022-12-10T01:01:50;3.50;99.90
13464;DHT22;6804;48.774;9.174;2022-12-10T01:04:20;3.30;99.90
13464;DHT22;6804;48.774;9.174;2022-12-10T01:06:49;3.20;99.90
13464;DHT22;6804;48.774;9.174;2022-12-10T01:09:22;3.20;99.90
13464;DHT22;6804;48.774;9.174;2022-12-10T01:11:53;3.30;99.90
13464;DHT22;6804;48.774;9.174;2022-12-10T01:14:27;3.20;99.90
13464;DHT22;6804;48.774;9.174;2022-12-10T01:16:57;3.20;99.90
13464;DHT22;6804;48.774;9.174;2022-12-10T01:19:27;3.30;99.90
13464;DHT22;6804;48.774;9.174;2022-12-10T01:21:58;3.30;99.90
13464;DHT22;6804;48.774;9.174;2022-12-10T01:24:30;3.30;99.90
13464;DHT22;6804;48.774;9.174;2022-12-10T01:26:58;3.20;99.90
13464;DHT22;6804;48.774;9.174;2022-12-10T01:29:28;3.20;99.90
13464;DHT22;6804;48.774;9.174;2022-12-10T01:31:58;3.20;99.90
13464;DHT22;6804;48.774;9.174;2022-12-10T01:34:28;3.10;99.90
13464;DHT22;6804;48.774;9.174;2022-12-10T01:36:58;3.10;99.90
13464;DHT22;6804;48.774;9.174;2022-12-10T01:39:30;3.10;99.90
13464;DHT22;6804;48.774;9.174;2022-12-10T01:41:58;3.10;99.90
13464;DHT22;6804;48.774;9.174;2022-12-10T01:45:03;3.20;99.90
13464;DHT22;6804;48.774;9.174;2022-12-10T01:47:33;3.30;99.90
13464;DHT22;6804;48.774;9.174;2022-12-10T01:50:02;3.50;99.90
13464;DHT22;6804;48.774;9.174;2022-12-10T01:52:29;3.60;99.90
13464;DHT22;6804;48.774;9.174;2022-12-10T01:55:00;3.50;99.90
13464;DHT22;6804;48.774;9.174;2022-12-10T01:57:28;3.60;99.90
13464;DHT22;6804;48.774;9.174;2022-12-10T01:59:58;3.60;99.90
13464;DHT22;6804;48.774;9.174;2022-12-10T02:02:42;3.70;99.90
13464;DHT22;6804;48.774;9.174;2022-12-10T02:05:18;3.80;99.90
13464;DHT22;6804;48.774;9.174;2022-12-10T02:07:59;3.80;99.90
13464;DHT22;6804;48.774;9.174;2022-12-10T02:10:59;3.80;99.90
13464;DHT22;6804;48.774;9.174;2022-12-10T02:13:31;3.80;99.90
13464;DHT22;6804;48.774;9.174;2022-12-10T02:16:04;3.60;99.90
13464;DHT22;6804;48.774;9.174;2022-12-10T02:18:39;3.50;99.90
13464;DHT22;6804;48.774;9.174;2022-12-10T02:21:13;3.40;99.90
13464;DHT22;6804;48.774;9.174;2022-12-10T02:23:56;3.40;99.90
13464;DHT22;6804;48.774;9.174;2022-12-10T02:26:36;3.20;99.90
13464;DHT22;6804;48.774;9.174;2022-12-10T02:29:12;3.20;99.90
13464;DHT22;6804;48.774;9.174;2022-12-10T02:31:47;3.10;99.90
13464;DHT22;6804;48.774;9.174;2022-12-10T02:34:18;3.10;99.90
13464;DHT22;6804;48.774;9.174;2022-12-10T02:36:51;3.10;99.90
13464;DHT22;6804;48.774;9.174;2022-12-10T02:39:23;3.00;99.90
13464;DHT22;6804;48.774;9.174;2022-12-10T02:41:53;3.10;99.90
13464;DHT22;6804;48.774;9.174;2022-12-10T02:44:23;3.20;99.90
13464;DHT22;6804;48.774;9.174;2022-12-10T02:46:57;3.30;99.90
13464;DHT22;6804;48.774;9.174;2022-12-10T02:49:29;3.20;99.90
13464;DHT22;6804;48.774;9.174;2022-12-10T02:52:09;3.20;99.90
13464;DHT22;6804;48.774;9.174;2022-12-10T02:54:41;3.20;99.90
13464;DHT22;6804;48.774;9.174;2022-12-10T02:57:17;3.20;99.90
13464;DHT22;6804;48.774;9.174;2022-12-10T03:00:04;3.20;99.90
13464;DHT22;6804;48.774;9.174;2022-12-10T03:02:43;3.40;99.90
13464;DHT22;6804;48.774;9.174;2022-12-10T03:05:16;3.50;99.90
13464;DHT22;6804;48.774;9.174;2022-12-10T03:07:51;3.50;99.90
13464;DHT22;6804;48.774;9.174;2022-12-10T03:10:24;3.60;99.90
13464;DHT22;6804;48.774;9.174;2022-12-10T03:12:59;3.60;99.90
13464;DHT22;6804;48.774;9.174;2022-12-10T03:15:33;3.60;99.90
13464;DHT22;6804;48.774;9.174;2022-12-10T03:18:02;3.50;99.90
13464;DHT22;6804;48.774;9.174;2022-12-10T03:20:33;3.60;99.90
13464;DHT22;6804;48.774;9.174;2022-12-10T03:23:02;3.70;99.90
13464;DHT22;6804;48.774;9.174;2022-12-10T03:25:33;3.70;99.90
13464;DHT22;6804;48.774;9.174;2022-12-10T03:28:02;3.70;99.90
13464;DHT22;6804;48.774;9.174;2022-12-10T03:30:33;3.70;99.90
13464;DHT22;6804;48.774;9.174;2022-12-10T03:33:03;3.60;99.90
13464;DHT22;6804;48.774;9.174;2022-12-10T03:35:31;3.60;99.90
13464;DHT22;6804;48.774;9.174;2022-12-10T03:38:02;3.40;99.90
13464;DHT22;6804;48.774;9.174;2022-12-10T03:40:34;3.40;99.90
13464;DHT22;6804;48.774;9.174;2022-12-10T03:43:02;3.40;99.90
13464;DHT22;6804;48.774;9.174;2022-12-10T03:45:30;3.30;99.90
13464;DHT22;6804;48.774;9.174;2022-12-10T03:48:00;3.20;99.90
13464;DHT22;6804;48.774;9.174;2022-12-10T03:50:28;3.20;99.90
13464;DHT22;6804;48.774;9.174;2022-12-10T03:52:55;3.20;99.90
13464;DHT22;6804;48.774;9.174;2022-12-10T03:55:23;3.20;99.90
13464;DHT22;6804;48.774;9.174;2022-12-10T03:57:53;3.30;99.90
13464;DHT22;6804;48.774;9.174;2022-12-10T04:00:23;3.40;99.90
13464;DHT22;6804;48.774;9.174;2022-12-10T04:02:54;3.50;99.90
13464;DHT22;6804;48.774;9.174;2022-12-10T04:05:24;3.50;99.90
13464;DHT22;6804;48.774;9.174;2022-12-10T04:07:51;3.60;99.90
13464;DHT22;6804;48.774;9.174;2022-12-10T04:10:21;3.70;99.90
13464;DHT22;6804;48.774;9.174;2022-12-10T04:12:48;3.70;99.90
13464;DHT22;6804;48.774;9.174;2022-12-10T04:15:38;3.80;99.90
13464;DHT22;6804;48.774;9.174;2022-12-10T04:18:25;3.90;99.90
13464;DHT22;6804;48.774;9.174;2022-12-10T04:20:52;3.90;99.90
13464;DHT22;6804;48.774;9.174;2022-12-10T04:23:37;3.90;99.90
13464;DHT22;6804;48.774;9.174;2022-12-10T04:26:22;4.00;99.90
13464;DHT22;6804;48.774;9.174;2022-12-10T04:29:07;3.90;99.90
13464;DHT22;6804;48.774;9.174;2022-12-10T04:31:34;4.00;99.90
13464;DHT22;6804;48.774;9.174;2022-12-10T04:34:06;4.00;99.90
13464;DHT22;6804;48.774;9.174;2022-12-10T04:36:33;4.00;99.90
13464;DHT22;6804;48.774;9.174;2022-12-10T04:39:03;4.00;99.90
13464;DHT22;6804;48.774;9.174;2022-12-10T04:41:33;4.00;99.90
13464;DHT22;6804;48.774;9.174;2022-12-10T04:44:03;4.10;99.90
13464;DHT22;6804;48.774;9.174;2022-12-10T04:46:33;4.10;99.90
13464;DHT22;6804;48.774;9.174;2022-12-10T04:49:03;4.10;99.90
13464;DHT22;6804;48.774;9.174;2022-12-10T04:51:30;4.10;99.90
13464;DHT22;6804;48.774;9.174;2022-12-10T04:53:58;4.10;99.90
13464;DHT22;6804;48.774;9.174;2022-12-10T04:56:26;4.10;99.90
13464;DHT22;6804;48.774;9.174;2022-12-10T04:58:55;4.10;99.90
13464;DHT22;6804;48.774;9.174;2022-12-10T05:01:22;4.10;99.90
13464;DHT22;6804;48.774;9.174;2022-12-10T05:03:50;4.00;99.90
13464;DHT22;6804;48.774;9.174;2022-12-10T05:06:22;4.00;99.90
13464;DHT22;6804;48.774;9.174;2022-12-10T05:08:49;3.90;99.90
13464;DHT22;6804;48.774;9.174;2022-12-10T05:11:19;3.90;99.90
13464;DHT22;6804;48.774;9.174;2022-12-10T05:13:46;3.90;99.90
13464;DHT22;6804;48.774;9.174;2022-12-10T05:16:16;3.90;99.90
13464;DHT22;6804;48.774;9.174;2022-12-10T05:18:46;3.90;99.90
13464;DHT22;6804;48.774;9.174;2022-12-10T05:21:15;3.80;99.90
13464;DHT22;6804;48.774;9.174;2022-12-10T05:23:45;3.80;99.90
13464;DHT22;6804;48.774;9.174;2022-12-10T05:26:16;3.90;99.90
13464;DHT22;6804;48.774;9.174;2022-12-10T05:28:45;3.90;99.90
13464;DHT22;6804;48.774;9.174;2022-12-10T05:31:17;3.80;99.90
13464;DHT22;6804;48.774;9.174;2022-12-10T05:33:45;3.80;99.90
13464;DHT22;6804;48.774;9.174;2022-12-10T05:36:17;3.80;99.90
13464;DHT22;6804;48.774;9.174;2022-12-10T05:38:47;3.80;99.90
13464;DHT22;6804;48.774;9.174;2022-12-10T05:41:18;3.80;99.90
13464;DHT22;6804;48.774;9.174;2022-12-10T05:43:46;3.80;99.90
13464;DHT22;6804;48.774;9.174;2022-12-10T05:46:16;3.80;99.90
13464;DHT22;6804;48.774;9.174;2022-12-10T05:48:44;3.80;99.90
13464;DHT22;6804;48.774;9.174;2022-12-10T05:51:13;3.80;99.90
13464;DHT22;6804;48.774;9.174;2022-12-10T05:53:43;3.80;99.90
13464;DHT22;6804;48.774;9.174;2022-12-10T05:56:14;3.70;99.90
13464;DHT22;6804;48.774;9.174;2022-12-10T05:58:46;3.70;99.90
13464;DHT22;6804;48.774;9.174;2022-12-10T06:01:17;3.70;99.90
13464;DHT22;6804;48.774;9.174;2022-12-10T06:03:47;3.70;99.90
13464;DHT22;6804;48.774;9.174;2022-12-10T06:06:20;3.70;99.90
13464;DHT22;6804;48.774;9.174;2022-12-10T06:08:48;3.70;99.90
13464;DHT22;6804;48.774;9.174;2022-12-10T06:11:17;3.80;99.90
13464;DHT22;6804;48.774;9.174;2022-12-10T06:13:45;3.80;99.90
13464;DHT22;6804;48.774;9.174;2022-12-10T06:16:16;3.80;99.90
13464;DHT22;6804;48.774;9.174;2022-12-10T06:18:46;3.80;99.90
13464;DHT22;6804;48.774;9.174;2022-12-10T06:21:17;3.80;99.90
13464;DHT22;6804;48.774;9.174;2022-12-10T06:23:46;3.80;99.90
13464;DHT22;6804;48.774;9.174;2022-12-10T06:26:15;3.80;99.90
13464;DHT22;6804;48.774;9.174;2022-12-10T06:28:52;3.70;99.90
13464;DHT22;6804;48.774;9.174;2022-12-10T06:31:20;3.80;99.90
13464;DHT22;6804;48.774;9.174;2022-12-10T06:33:47;3.80;99.90
13464;DHT22;6804;48.774;9.174;2022-12-10T06:36:18;3.90;99.90
13464;DHT22;6804;48.774;9.174;2022-12-10T06:38:47;3.80;99.90
13464;DHT22;6804;48.774;9.174;2022-12-10T06:41:16;3.80;99.90
13464;DHT22;6804;48.774;9.174;2022-12-10T06:43:47;3.80;99.90
13464;DHT22;6804;48.774;9.174;2022-12-10T06:46:18;3.90;99.90
13464;DHT22;6804;48.774;9.174;2022-12-10T06:48:48;3.80;99.90
13464;DHT22;6804;48.774;9.174;2022-12-10T06:51:19;3.90;99.90
13464;DHT22;6804;48.774;9.174;2022-12-10T06:53:46;3.80;99.90
13464;DHT22;6804;48.774;9.174;2022-12-10T06:56:17;3.70;99.90
13464;DHT22;6804;48.774;9.174;2022-12-10T06:58:46;3.60;99.90
13464;DHT22;6804;48.774;9.174;2022-12-10T07:01:20;3.50;99.90
13464;DHT22;6804;48.774;9.174;2022-12-10T07:03:48;3.50;99.90
13464;DHT22;6804;48.774;9.174;2022-12-10T07:06:19;3.50;99.90
13464;DHT22;6804;48.774;9.174;2022-12-10T07:08:47;3.50;99.90
13464;DHT22;6804;48.774;9.174;2022-12-10T07:11:22;3.50;99.90
13464;DHT22;6804;48.774;9.174;2022-12-10T07:13:51;3.50;99.90
13464;DHT22;6804;48.774;9.174;2022-12-10T07:16:21;3.50;99.90
13464;DHT22;6804;48.774;9.174;2022-12-10T07:18:49;3.60;99.90
13464;DHT22;6804;48.774;9.174;2022-12-10T07:21:21;3.60;99.90
13464;DHT22;6804;48.774;9.174;2022-12-10T07:23:49;3.60;99.90
13464;DHT22;6804;48.774;9.174;2022-12-10T07:26:17;3.70;99.90
13464;DHT22;6804;48.774;9.174;2022-12-10T07:28:47;3.70;99.90
13464;DHT22;6804;48.774;9.174;2022-12-10T07:31:16;3.60;99.90
13464;DHT22;6804;48.774;9.174;2022-12-10T07:33:50;3.60;99.90
13464;DHT22;6804;48.774;9.174;2022-12-10T07:36:18;3.60;99.90
13464;DHT22;6804;48.774;9.174;2022-12-10T07:38:48;3.60;99.90
13464;DHT22;6804;48.774;9.174;2022-12-10T07:41:17;3.60;99.90
13464;DHT22;6804;48.774;9.174;2022-12-10T07:43:45;3.60;99.90
13464;DHT22;6804;48.774;9.174;2022-12-10T07:46:14;3.60;99.90
13464;DHT22;6804;48.774;9.174;2022-12-10T07:48:50;3.60;99.90
13464;DHT22;6804;48.774;9.174;2022-12-10T07:51:22;3.60;99.90
13464;DHT22;6804;48.774;9.174;2022-12-10T07:53:52;3.60;99.90
13464;DHT22;6804;48.774;9.174;2022-12-10T07:56:19;3.60;99.90
13464;DHT22;6804;48.774;9.174;2022-12-10T07:58:50;3.60;99.90
13464;DHT22;6804;48.774;9.174;2022-12-10T08:01:22;3.60;99.90
13464;DHT22;6804;48.774;9.174;2022-12-10T08:03:55;3.60;99.90
13464;DHT22;6804;48.774;9.174;2022-12-10T08:06:24;3.60;99.90
13464;DHT22;6804;48.774;9.174;2022-12-10T08:08:52;3.60;99.90
13464;DHT22;6804;48.774;9.174;2022-12-10T08:11:22;3.60;99.90
13464;DHT22;6804;48.774;9.174;2022-12-10T08:13:50;3.60;99.90
13464;DHT22;6804;48.774;9.174;2022-12-10T08:16:19;3.50;99.90
13464;DHT22;6804;48.774;9.174;2022-12-10T08:18:52;3.50;99.90
13464;DHT22;6804;48.774;9.174;2022-12-10T08:21:22;3.40;99.90
13464;DHT22;6804;48.774;9.174;2022-12-10T08:23:49;3.30;99.90
13464;DHT22;6804;48.774;9.174;2022-12-10T08:26:19;3.30;99.90
13464;DHT22;6804;48.774;9.174;2022-12-10T08:28:53;3.40;99.90
13464;DHT22;6804;48.774;9.174;2022-12-10T08:31:25;3.40;99.90
13464;DHT22;6804;48.774;9.174;2022-12-10T08:33:56;3.50;99.90
13464;DHT22;6804;48.774;9.174;2022-12-10T08:36:27;3.50;99.90
13464;DHT22;6804;48.774;9.174;2022-12-10T08:38:56;3.50;99.90
13464;DHT22;6804;48.774;9.174;2022-12-10T08:41:23;3.60;99.90
13464;DHT22;6804;48.774;9.174;2022-12-10T08:43:51;3.60;99.90
13464;DHT22;6804;48.774;9.174;2022-12-10T08:46:22;3.70;99.90
13464;DHT22;6804;48.774;9.174;2022-12-10T08:48:50;3.70;99.90
13464;DHT22;6804;48.774;9.174;2022-12-10T08:51:22;3.70;99.90
13464;DHT22;6804;48.774;9.174;2022-12-10T08:53:50;3.70;99.90
13464;DHT22;6804;48.774;9.174;2022-12-10T08:56:17;3.70;99.90
13464;DHT22;6804;48.774;9.174;2022-12-10T08:58:45;3.70;99.90
13464;DHT22;6804;48.774;9.174;2022-12-10T09:01:16;3.70;99.90
13464;DHT22;6804;48.774;9.174;2022-12-10T09:03:46;3.70;99.90
13464;DHT22;6804;48.774;9.174;2022-12-10T09:06:18;3.70;99.90
13464;DHT22;6804;48.774;9.174;2022-12-10T09:08:51;3.70;99.90
13464;DHT22;6804;48.774;9.174;2022-12-10T09:11:21;3.70;99.90
13464;DHT22;6804;48.774;9.174;2022-12-10T09:13:48;3.80;99.90
13464;DHT22;6804;48.774;9.174;2022-12-10T09:16:16;3.80;99.90
13464;DHT22;6804;48.774;9.174;2022-12-10T09:18:43;3.80;99.90
13464;DHT22;6804;48.774;9.174;2022-12-10T09:21:12;3.80;99.90
13464;DHT22;6804;48.774;9.174;2022-12-10T09:23:41;3.80;99.90
13464;DHT22;6804;48.774;9.174;2022-12-10T09:26:14;3.90;99.90
13464;DHT22;6804;48.774;9.174;2022-12-10T09:28:43;3.90;99.90
13464;DHT22;6804;48.774;9.174;2022-12-10T09:31:15;3.90;99.90
13464;DHT22;6804;48.774;9.174;2022-12-10T09:33:42;3.90;99.90
13464;DHT22;6804;48.774;9.174;2022-12-10T09:36:13;4.00;99.90
13464;DHT22;6804;48.774;9.174;2022-12-10T09:38:44;4.00;99.90
13464;DHT22;6804;48.774;9.174;2022-12-10T09:44:07;4.00;99.90
13464;DHT22;6804;48.774;9.174;2022-12-10T09:46:46;4.00;99.90
13464;DHT22;6804;48.774;9.174;2022-12-10T09:49:23;4.00;99.90
13464;DHT22;6804;48.774;9.174;2022-12-10T09:51:59;3.90;99.90
13464;DHT22;6804;48.774;9.174;2022-12-10T09:54:33;3.90;99.90
13464;DHT22;6804;48.774;9.174;2022-12-10T09:57:05;3.90;99.90
13464;DHT22;6804;48.774;9.174;2022-12-10T09:59:37;3.90;99.90
13464;DHT22;6804;48.774;9.174;2022-12-10T10:02:19;3.90;99.90
13464;DHT22;6804;48.774;9.174;2022-12-10T10:04:51;3.90;99.90
13464;DHT22;6804;48.774;9.174;2022-12-10T10:07:25;3.90;99.90
13464;DHT22;6804;48.774;9.174;2022-12-10T10:09:57;3.90;99.90
13464;DHT22;6804;48.774;9.174;2022-12-10T10:12:27;3.80;99.90
13464;DHT22;6804;48.774;9.174;2022-12-10T10:14:58;3.90;99.90
13464;DHT22;6804;48.774;9.174;2022-12-10T10:17:31;3.80;99.90
13464;DHT22;6804;48.774;9.174;2022-12-10T10:20:00;3.80;99.90
13464;DHT22;6804;48.774;9.174;2022-12-10T10:22:32;3.80;99.90
13464;DHT22;6804;48.774;9.174;2022-12-10T10:24:59;3.70;99.90
13464;DHT22;6804;48.774;9.174;2022-12-10T10:27:30;3.70;99.90
13464;DHT22;6804;48.774;9.174;2022-12-10T10:30:03;3.70;99.90
13464;DHT22;6804;48.774;9.174;2022-12-10T10:32:47;3.70;99.90
13464;DHT22;6804;48.774;9.174;2022-12-10T10:35:27;3.80;99.90
13464;DHT22;6804;48.774;9.174;2022-12-10T10:38:05;3.80;99.90
13464;DHT22;6804;48.774;9.174;2022-12-10T10:40:39;3.80;99.90
13464;DHT22;6804;48.774;9.174;2022-12-10T10:43:20;3.90;99.90
13464;DHT22;6804;48.774;9.174;2022-12-10T10:45:51;3.90;99.90
13464;DHT22;6804;48.774;9.174;2022-12-10T10:48:25;3.80;99.90
13464;DHT22;6804;48.774;9.174;2022-12-10T10:51:05;3.90;99.90
13464;DHT22;6804;48.774;9.174;2022-12-10T10:53:40;3.90;99.90
13464;DHT22;6804;48.774;9.174;2022-12-10T10:56:11;3.90;99.90
13464;DHT22;6804;48.774;9.174;2022-12-10T10:58:56;3.90;99.90
13464;DHT22;6804;48.774;9.174;2022-12-10T11:01:26;3.80;99.90
13464;DHT22;6804;48.774;9.174;2022-12-10T11:03:56;3.80;99.90
13464;DHT22;6804;48.774;9.174;2022-12-10T11:06:25;3.80;99.90
13464;DHT22;6804;48.774;9.174;2022-12-10T11:08:57;3.90;99.90
13464;DHT22;6804;48.774;9.174;2022-12-10T11:11:32;3.90;99.90
13464;DHT22;6804;48.774;9.174;2022-12-10T11:14:25;4.00;99.90
13464;DHT22;6804;48.774;9.174;2022-12-10T11:17:00;4.00;99.90
13464;DHT22;6804;48.774;9.174;2022-12-10T11:19:31;4.00;99.90
13464;DHT22;6804;48.774;9.174;2022-12-10T11:22:20;4.00;99.90
13464;DHT22;6804;48.774;9.174;2022-12-10T11:24:48;4.00;99.90
13464;DHT22;6804;48.774;9.174;2022-12-10T11:27:23;4.10;99.90
13464;DHT22;6804;48.774;9.174;2022-12-10T11:29:59;4.10;99.90
13464;DHT22;6804;48.774;9.174;2022-12-10T11:32:49;4.10;99.90
13464;DHT22;6804;48.774;9.174;2022-12-10T11:35:31;4.10;99.90
13464;DHT22;6804;48.774;9.174;2022-12-10T11:38:08;4.20;99.90
13464;DHT22;6804;48.774;9.174;2022-12-10T11:40:41;4.20;99.90
13464;DHT22;6804;48.774;9.174;2022-12-10T11:43:31;4.20;99.90
13464;DHT22;6804;48.774;9.174;2022-12-10T11:46:15;4.20;99.90
13464;DHT22;6804;48.774;9.174;2022-12-10T11:48:55;4.20;99.90
13464;DHT22;6804;48.774;9.174;2022-12-10T11:51:30;4.20;99.90
13464;DHT22;6804;48.774;9.174;2022-12-10T11:54:17;4.20;99.90
13464;DHT22;6804;48.774;9.174;2022-12-10T11:56:49;4.20;99.90
13464;DHT22;6804;48.774;9.174;2022-12-10T11:59:26;4.20;99.90
13464;DHT22;6804;48.774;9.174;2022-12-10T12:02:27;4.20;99.90
13464;DHT22;6804;48.774;9.174;2022-12-10T12:05:28;4.30;99.90
13464;DHT22;6804;48.774;9.174;2022-12-10T12:08:05;4.30;99.90
13464;DHT22;6804;48.774;9.174;2022-12-10T12:11:05;4.40;99.90
13464;DHT22;6804;48.774;9.174;2022-12-10T12:13:38;4.40;99.90
13464;DHT22;6804;48.774;9.174;2022-12-10T12:16:09;4.40;99.90
13464;DHT22;6804;48.774;9.174;2022-12-10T12:18:45;4.40;99.90
13464;DHT22;6804;48.774;9.174;2022-12-10T12:21:20;4.40;99.90
13464;DHT22;6804;48.774;9.174;2022-12-10T12:23:51;4.40;99.90
13464;DHT22;6804;48.774;9.174;2022-12-10T12:26:31;4.50;99.90
13464;DHT22;6804;48.774;9.174;2022-12-10T12:29:10;4.40;99.90
13464;DHT22;6804;48.774;9.174;2022-12-10T12:31:42;4.50;99.90
13464;DHT22;6804;48.774;9.174;2022-12-10T12:34:18;4.50;99.90
13464;DHT22;6804;48.774;9.174;2022-12-10T12:36:48;4.50;99.90
13464;DHT22;6804;48.774;9.174;2022-12-10T12:39:23;4.50;99.90
13464;DHT22;6804;48.774;9.174;2022-12-10T12:41:59;4.50;99.90
13464;DHT22;6804;48.774;9.174;2022-12-10T12:44:33;4.50;99.90
13464;DHT22;6804;48.774;9.174;2022-12-10T12:47:15;4.50;99.90
13464;DHT22;6804;48.774;9.174;2022-12-10T12:49:48;4.50;99.90
13464;DHT22;6804;48.774;9.174;2022-12-10T12:52:28;4.50;99.90
13464;DHT22;6804;48.774;9.174;2022-12-10T12:57:54;4.60;99.90
13464;DHT22;6804;48.774;9.174;2022-12-10T13:00:23;4.60;99.90
13464;DHT22;6804;48.774;9.174;2022-12-10T13:02:59;4.50;99.90
13464;DHT22;6804;48.774;9.174;2022-12-10T13:05:32;4.50;99.90
13464;DHT22;6804;48.774;9.174;2022-12-10T13:08:30;4.50;99.90
13464;DHT22;6804;48.774;9.174;2022-12-10T13:10:59;4.50;99.90
13464;DHT22;6804;48.774;9.174;2022-12-10T13:13:33;4.50;99.90
13464;DHT22;6804;48.774;9.174;2022-12-10T13:16:34;4.40;99.90
13464;DHT22;6804;48.774;9.174;2022-12-10T13:19:28;4.40;99.90
13464;DHT22;6804;48.774;9.174;2022-12-10T13:22:40;4.40;99.90
13464;DHT22;6804;48.774;9.174;2022-12-10T13:25:14;4.40;99.90
13464;DHT22;6804;48.774;9.174;2022-12-10T13:27:55;4.40;99.90
13464;DHT22;6804;48.774;9.174;2022-12-10T13:30:34;4.40;99.90
13464;DHT22;6804;48.774;9.174;2022-12-10T13:33:15;4.40;99.90
13464;DHT22;6804;48.774;9.174;2022-12-10T13:35:56;4.40;99.90
13464;DHT22;6804;48.774;9.174;2022-12-10T13:38:40;4.40;99.90
13464;DHT22;6804;48.774;9.174;2022-12-10T13:41:08;4.30;99.90
13464;DHT22;6804;48.774;9.174;2022-12-10T13:43:54;4.40;99.90
13464;DHT22;6804;48.774;9.174;2022-12-10T13:47:21;4.40;99.90
13464;DHT22;6804;48.774;9.174;2022-12-10T13:49:54;4.40;99.90
13464;DHT22;6804;48.774;9.174;2022-12-10T13:52:26;4.30;99.90
13464;DHT22;6804;48.774;9.174;2022-12-10T13:55:25;4.20;99.90
13464;DHT22;6804;48.774;9.174;2022-12-10T13:58:22;4.20;99.90
13464;DHT22;6804;48.774;9.174;2022-12-10T14:01:00;4.20;99.90
13464;DHT22;6804;48.774;9.174;2022-12-10T14:03:50;4.30;99.90
13464;DHT22;6804;48.774;9.174;2022-12-10T14:06:22;4.10;99.90
13464;DHT22;6804;48.774;9.174;2022-12-10T14:09:03;4.10;99.90
13464;DHT22;6804;48.774;9.174;2022-12-10T14:11:35;4.00;99.90
13464;DHT22;6804;48.774;9.174;2022-12-10T14:14:13;4.00;99.90
13464;DHT22;6804;48.774;9.174;2022-12-10T14:16:42;4.00;99.90
13464;DHT22;6804;48.774;9.174;2022-12-10T14:19:13;4.00;99.90
13464;DHT22;6804;48.774;9.174;2022-12-10T14:21:42;4.00;99.90
13464;DHT22;6804;48.774;9.174;2022-12-10T14:24:29;3.90;99.90
13464;DHT22;6804;48.774;9.174;2022-12-10T14:27:11;3.90;99.90
13464;DHT22;6804;48.774;9.174;2022-12-10T14:29:46;3.90;99.90
13464;DHT22;6804;48.774;9.174;2022-12-10T14:32:15;3.90;99.90
13464;DHT22;6804;48.774;9.174;2022-12-10T14:34:51;3.80;99.90
13464;DHT22;6804;48.774;9.174;2022-12-10T14:37:23;3.80;99.90
13464;DHT22;6804;48.774;9.174;2022-12-10T14:39:51;3.70;99.90
13464;DHT22;6804;48.774;9.174;2022-12-10T14:42:23;3.80;99.90
13464;DHT22;6804;48.774;9.174;2022-12-10T14:44:56;3.80;99.90
13464;DHT22;6804;48.774;9.174;2022-12-10T14:47:24;3.80;99.90
13464;DHT22;6804;48.774;9.174;2022-12-10T14:49:55;3.80;99.90
13464;DHT22;6804;48.774;9.174;2022-12-10T14:52:24;3.80;99.90
13464;DHT22;6804;48.774;9.174;2022-12-10T14:54:53;3.80;99.90
13464;DHT22;6804;48.774;9.174;2022-12-10T14:57:24;3.80;99.90
13464;DHT22;6804;48.774;9.174;2022-12-10T14:59:57;3.80;99.90
13464;DHT22;6804;48.774;9.174;2022-12-10T15:02:33;3.70;99.90
13464;DHT22;6804;48.774;9.174;2022-12-10T15:05:02;3.70;99.90
13464;DHT22;6804;48.774;9.174;2022-12-10T15:07:32;3.70;99.90
13464;DHT22;6804;48.774;9.174;2022-12-10T15:10:07;3.60;99.90
13464;DHT22;6804;48.774;9.174;2022-12-10T15:12:46;3.60;99.90
13464;DHT22;6804;48.774;9.174;2022-12-10T15:15:19;3.60;99.90
13464;DHT22;6804;48.774;9.174;2022-12-10T15:17:58;3.60;99.90
13464;DHT22;6804;48.774;9.174;2022-12-10T15:20:36;3.70;99.90
13464;DHT22;6804;48.774;9.174;2022-12-10T15:23:30;3.70;99.90
13464;DHT22;6804;48.774;9.174;2022-12-10T15:26:09;3.70;99.90
13464;DHT22;6804;48.774;9.174;2022-12-10T15:28:42;3.70;99.90
13464;DHT22;6804;48.774;9.174;2022-12-10T15:31:13;3.70;99.90
13464;DHT22;6804;48.774;9.174;2022-12-10T15:33:46;3.60;99.90
13464;DHT22;6804;48.774;9.174;2022-12-10T15:36:21;3.60;99.90
13464;DHT22;6804;48.774;9.174;2022-12-10T15:38:50;3.60;99.90
13464;DHT22;6804;48.774;9.174;2022-12-10T15:41:34;3.60;99.90
13464;DHT22;6804;48.774;9.174;2022-12-10T15:44:17;3.60;99.90
13464;DHT22;6804;48.774;9.174;2022-12-10T15:46:48;3.60;99.90
13464;DHT22;6804;48.774;9.174;2022-12-10T15:49:18;3.60;99.90
13464;DHT22;6804;48.774;9.174;2022-12-10T15:51:47;3.60;99.90
13464;DHT22;6804;48.774;9.174;2022-12-10T15:54:33;3.50;99.90
13464;DHT22;6804;48.774;9.174;2022-12-10T15:57:09;3.50;99.90
13464;DHT22;6804;48.774;9.174;2022-12-10T15:59:46;3.50;99.90
13464;DHT22;6804;48.774;9.174;2022-12-10T16:02:29;3.50;99.90
13464;DHT22;6804;48.774;9.174;2022-12-10T16:05:02;3.50;99.90
13464;DHT22;6804;48.774;9.174;2022-12-10T16:07:32;3.50;99.90
13464;DHT22;6804;48.774;9.174;2022-12-10T16:10:09;3.50;99.90
13464;DHT22;6804;48.774;9.174;2022-12-10T16:12:37;3.50;99.90
13464;DHT22;6804;48.774;9.174;2022-12-10T16:15:15;3.50;99.90
13464;DHT22;6804;48.774;9.174;2022-12-10T16:17:44;3.50;99.90
13464;DHT22;6804;48.774;9.174;2022-12-10T16:20:24;3.50;99.90
13464;DHT22;6804;48.774;9.174;2022-12-10T16:22:53;3.60;99.90
13464;DHT22;6804;48.774;9.174;2022-12-10T16:25:26;3.50;99.90
13464;DHT22;6804;48.774;9.174;2022-12-10T16:27:57;3.50;99.90
13464;DHT22;6804;48.774;9.174;2022-12-10T16:30:37;3.50;99.90
13464;DHT22;6804;48.774;9.174;2022-12-10T16:33:10;3.40;99.90
13464;DHT22;6804;48.774;9.174;2022-12-10T16:35:55;3.40;99.90
13464;DHT22;6804;48.774;9.174;2022-12-10T16:38:25;3.40;99.90
13464;DHT22;6804;48.774;9.174;2022-12-10T16:40:53;3.40;99.90
13464;DHT22;6804;48.774;9.174;2022-12-10T16:43:26;3.40;99.90
13464;DHT22;6804;48.774;9.174;2022-12-10T16:45:57;3.40;99.90
13464;DHT22;6804;48.774;9.174;2022-12-10T16:48:25;3.40;99.90